• Join FlightAware (Why Join?)
  • Login
  • US Flag 
05:11AM EDT


 

Airport Tracker/Info


-or-


 

Live Flight TrackerFlight Track Log ✈ JBU917 ✈ 13-Apr-2013 ✈ KJFK - KORD

Flight Track Log - Related Links

Times and Time Zones

All times are in EDT time to prevent confusion due to time zone crossing. See the JBU917 flight status page for this flight to view local times or setup timezone preferences in your user account.

Time Position Orientation Groundspeed Altitude Reporting Facility
EDT Latitude Longitude Course Direction KTS MPH feet Rate Location/Type
05:40PM 40.6167 -73.8000 306° West 147 169 1,400  Level New York TRACON
05:41PM 40.5667 -73.8000 180° South 222 255 3,200 1,920 Climbing New York TRACON
05:42PM 40.5833 -73.7167 75° East 285 328 5,500 2,520 Climbing New York TRACON
05:43PM 40.6333 -73.6667 37° Northeast 288 331 8,000 2,640 Climbing New York TRACON
05:44PM 40.8947 -74.2680 306° West  Level FlightAware Approximate
05:44PM 40.6833 -73.5833 52° Northeast 313 360 10,600  Level New York TRACON
05:45PM 40.9500 -74.3693 306° West  Level FlightAware Approximate
05:45PM 40.8000 -73.5667 North 341 392 12,300  Level New York TRACON
05:46PM 40.8667 -73.6000 339° North 332 382 14,300 2,280 Climbing New York TRACON
05:47PM 40.9333 -73.6833 317° Northwest 319 367 16,700 840 Climbing New York TRACON
05:49PM 40.9975 -73.8914 292° West 338 389 16,900 600 Climbing New York Center
05:49PM 41.0258 -74.0000 289° West 320 368 18,500 1,800 Climbing New York Center
05:50PM 41.0586 -74.0981 294° West 320 368 20,500 2,040 Climbing New York Center
05:51PM 41.0908 -74.2069 291° West 320 368 22,600 1,800 Climbing New York Center
05:52PM 41.1250 -74.3189 292° West 320 368 24,200 1,560 Climbing New York Center
05:53PM 41.1611 -74.4308 293° West 320 368 25,800 1,380 Climbing New York Center
05:54PM 41.1969 -74.5514 292° West 335 386 27,000 1,080 Climbing New York Center
05:56PM 41.2367 -74.6750 293° West 348 400 28,100 1,320 Climbing New York Center
05:57PM 41.2719 -74.7986 291° West 358 412 29,700 1,560 Climbing New York Center
05:57PM 41.3075 -74.9194 291° West 358 412 31,200 1,380 Climbing New York Center
05:58PM 41.3428 -75.0350 292° West 353 406 32,500 1,140 Climbing New York Center
05:59PM 41.3781 -75.1533 292° West 348 400 33,500 780 Climbing New York Center
06:01PM 41.4114 -75.2689 291° West 343 395 34,200 420 Climbing New York Center
06:02PM 41.4464 -75.3875 292° West 343 395 34,400 300 Climbing New York Center
06:03PM 41.4850 -75.5119 293° West 349 402 34,800 360 Climbing New York Center
06:03PM 41.5214 -75.6447 290° West 363 418 35,200 360 Climbing New York Center
06:04PM 41.5578 -75.7719 291° West 368 423 35,600 360 Climbing New York Center
06:05PM 41.5958 -75.9025 291° West 374 430 36,000 180 Climbing New York Center
06:07PM 41.6319 -76.0331 290° West 374 430 36,000  Level New York Center
06:08PM 41.6697 -76.1636 291° West 374 430 36,000  Level New York Center
06:08PM 41.7033 -76.2914 289° West 374 430 36,000  Level New York Center
06:09PM 41.7411 -76.4225 291° West 374 430 36,000  Level New York Center
06:10PM 41.7781 -76.5592 290° West 374 430 36,000  Level New York Center
06:11PM 41.8153 -76.6903 291° West 374 430 36,000  Level New York Center
06:13PM 41.8836 -76.9458 290° West 384 442 36,000  Level Cleveland Center
06:14PM 41.9211 -77.0750 291° West 379 436 36,000  Level Cleveland Center
06:15PM 41.9564 -77.2072 290° West 379 436 36,000  Level Cleveland Center
06:16PM 41.9933 -77.3394 291° West 379 436 36,000  Level Cleveland Center
06:17PM 42.0283 -77.4689 290° West 379 436 36,000  Level Cleveland Center
06:18PM 42.0653 -77.6097 290° West 379 436 36,000  Level Cleveland Center
06:19PM 42.0981 -77.7428 288° West 379 436 36,000  Level Cleveland Center
06:20PM 42.1344 -77.8756 290° West 379 436 36,000  Level Cleveland Center
06:21PM 42.1689 -78.0058 290° West 379 436 36,000  Level Cleveland Center
06:22PM 42.2028 -78.1361 289° West 379 436 36,000  Level Cleveland Center
06:23PM 42.2369 -78.2694 289° West 379 436 36,000  Level Cleveland Center
06:24PM 42.2708 -78.4000 289° West 379 436 36,000  Level Cleveland Center
06:25PM 42.3044 -78.5308 289° West 379 436 36,000  Level Cleveland Center
06:26PM 42.3381 -78.6619 289° West 379 436 36,000  Level Cleveland Center
06:27PM 42.3714 -78.7928 289° West 379 436 36,000  Level Cleveland Center
06:28PM 42.4003 -78.9131 288° West 373 429 36,000  Level Cleveland Center
06:29PM 42.4311 -79.0472 287° West 373 429 36,000  Level Cleveland Center
06:30PM 42.4728 -79.1925 291° West 378 435 36,000  Level Cleveland Center
06:31PM 42.4972 -79.3272 284° West 378 435 36,000  Level Cleveland Center
06:32PM 42.5028 -79.4653 273° West 373 429 36,000  Level Cleveland Center
06:33PM 42.5081 -79.6031 273° West 368 423 36,000  Level Cleveland Center
06:34PM 42.5133 -79.7411 273° West 368 423 36,000  Level Cleveland Center
06:35PM 42.5228 -79.8789 275° West 368 423 36,000  Level Cleveland Center
06:36PM 42.5256 -80.0114 272° West 375 432 36,000  Level Cleveland Center
06:37PM 42.5303 -80.1464 273° West 375 432 36,000  Level Cleveland Center
06:38PM 42.5369 -80.3042 273° West 380 437 36,000  Level Cleveland Center
06:39PM 42.5436 -80.4422 274° West 380 437 36,000  Level Cleveland Center
06:40PM 42.5497 -80.5831 273° West 382 440 36,000  Level Cleveland Center
06:41PM 42.5561 -80.7297 273° West 382 440 36,000  Level Cleveland Center
06:42PM 42.5600 -80.8708 272° West 382 440 36,000  Level Cleveland Center
06:43PM 42.5656 -81.0144 273° West 382 440 36,000  Level Cleveland Center
06:44PM 42.5714 -81.1583 273° West 382 440 36,000  Level Cleveland Center
06:45PM 42.5747 -81.3022 272° West 382 440 36,000  Level Cleveland Center
06:46PM 42.5819 -81.4403 274° West 382 440 36,000  Level Cleveland Center
06:47PM 42.6081 -81.5847 284° West 387 445 36,000  Level Cleveland Center
06:48PM 42.6317 -81.7261 283° West 387 445 36,000  Level Cleveland Center
06:49PM 42.6511 -81.8506 282° West 382 440 36,000  Level Cleveland Center
06:50PM 42.6767 -81.9925 284° West 382 440 36,000  Level Cleveland Center
06:51PM 42.6997 -82.1342 283° West 382 440 36,000  Level Cleveland Center
06:52PM 42.7250 -82.2789 283° West 388 447 36,000  Level Cleveland Center
06:53PM 42.7497 -82.4239 283° West 394 453 36,000  Level Cleveland Center
06:54PM 42.7744 -82.5744 283° West 399 459 36,000  Level Cleveland Center
06:55PM 42.7989 -82.7225 283° West 399 459 36,000  Level Cleveland Center
06:56PM 42.8250 -82.8706 284° West 399 459 36,000  Level Cleveland Center
06:57PM 42.8472 -83.0186 282° West 399 459 36,000 -300 Level Cleveland Center
06:58PM 42.8628 -83.1664 278° West 399 459 35,500 -780 Descending Cleveland Center
06:59PM 42.8653 -83.3194 271° West 399 459 34,500 -1,020 Descending Cleveland Center
07:00PM 42.8661 -83.4642 270° West 399 459 33,500 -1,140 Descending Cleveland Center
07:01PM 42.8703 -83.6286 272° West 399 459 32,300 -1,140 Descending Cleveland Center
07:02PM 42.8722 -83.7789 271° West 399 459 31,300 -1,020 Descending Cleveland Center
07:03PM 42.8725 -83.9233 270° West 399 459 30,300 -660 Descending Cleveland Center
07:04PM 42.8764 -84.0711 272° West 399 459 30,000 -180 Descending Cleveland Center
07:05PM 42.8803 -84.2186 272° West 399 459 30,000  Level Cleveland Center
07:07PM 42.8836 -84.4664 271° West 391 450 30,000  Level Chicago Center
07:08PM 42.8819 -84.6133 269° West 390 449 30,000  Level Chicago Center
07:09PM 42.8664 -84.7592 262° West 391 450 30,000  Level Chicago Center
07:10PM 42.8481 -84.9342 262° West 390 449 30,000  Level Chicago Center
07:11PM 42.8319 -85.0794 261° West 389 448 30,000  Level Chicago Center
07:12PM 42.8158 -85.2239 261° West 387 445 30,000  Level Chicago Center
07:13PM 42.8011 -85.3692 262° West 388 447 30,000 -420 Level Chicago Center
07:14PM 42.7839 -85.5131 261° West 386 444 29,200 -1,320 Descending Chicago Center
07:15PM 42.7583 -85.6550 256° West 384 442 27,400 -1,680 Descending Chicago Center
07:16PM 42.7339 -85.7917 256° West 375 432 25,800 -1,620 Descending Chicago Center
07:18PM 42.7094 -85.9253 256° West 364 419 24,200 -1,620 Descending Chicago Center
07:19PM 42.6853 -86.0550 256° West 354 407 22,600 -1,560 Descending Chicago Center
07:20PM 42.6639 -86.1797 257° West 341 392 21,100 -1,500 Descending Chicago Center
07:21PM 42.6406 -86.3031 256° West 337 388 19,600 -1,440 Descending Chicago Center
07:22PM 42.6183 -86.4181 255° West 320 368 18,200 -1,320 Descending Chicago Center
07:23PM 42.5958 -86.5353 255° West 320 368 16,900 -2,040 Descending Chicago Center
07:24PM 42.5694 -86.6742 256° West 317 365 14,100 -2,400 Descending Chicago Center
07:25PM 42.5453 -86.7828 253° West 304 350 12,100 -1,740 Descending Chicago Center
07:26PM 42.5200 -86.8769 250° West 272 313 10,600 -1,320 Descending Chicago Center
07:27PM 42.4967 -86.9625 250° West 247 284 9,400 -840 Descending Chicago Center
07:28PM 42.4742 -87.0447 250° West 236 272 9,000 -240 Descending Chicago Center
07:29PM 42.4503 -87.1303 249° West 241 277 9,000  Level Chicago Center
07:30PM 42.4267 -87.2136 249° West 240 276 9,000  Level Chicago Center
07:31PM 42.4042 -87.2989 250° West 242 278 9,000  Level Chicago Center
07:32PM 42.3383 -87.3294 199° South 293 337 9,000  Level Chicago Center
07:33PM 42.2572 -87.3400 186° South 288 331 9,000 -540 Level Chicago Center
07:34PM 42.1922 -87.3825 206° Southwest 263 303 8,000 -1,140 Descending Chicago Center
07:35PM 42.1167 -87.4333 207° Southwest 249 287 6,700 -1,140 Descending Chicago TRACON
07:36PM 42.0667 -87.4833 217° Southwest 224 258 5,800 -1,440 Descending Chicago TRACON
07:37PM 42.0167 -87.5167 206° Southwest 203 234 4,000 -960 Descending Chicago TRACON
07:38PM 41.9833 -87.5667 228° Southwest 204 235 4,000  Level Chicago TRACON
07:39PM 41.9833 -87.6333 270° West 200 230 4,000 -300 Level Chicago TRACON
07:40PM 41.9833 -87.7000 270° West 180 207 3,400 -780 Descending Chicago TRACON
07:41PM 41.9833 -87.7667 270° West 153 176 2,500 -900 Descending Chicago TRACON
07:42PM 41.9833 -87.8167 270° West 133 153 1,700 -780 Descending Chicago TRACON
07:43PM 41.9833 -87.8667 270° West 132 152 1,000 -720 Descending Chicago TRACON